Time;durP1;ratioP1;P1;durP2;ratioP2;P2;SDS_P1;SDS_P2;PMS_P1;PMS_P2;Temp;Humidity;BMP_temperature;BMP_pressure;BME280_temperature;BME280_humidity;BME280_pressure;Samples;Min_cycle;Max_cycle;Signal;HPM_P1;HPM_P2
2024/01/14 00:02:02;;;;;;;1.63;0.73;;;3.40;99.90;;;;;;4941232;28;20210;-68
2024/01/14 00:04:29;;;;;;;5.57;1.10;;;3.40;99.90;;;;;;4950908;28;20217;-68
2024/01/14 00:06:55;;;;;;;6.40;1.10;;;3.40;99.90;;;;;;4943484;28;20699;-68
2024/01/14 00:09:22;;;;;;;4.10;1.23;;;3.50;99.90;;;;;;4960598;28;20677;-68
2024/01/14 00:11:49;;;;;;;4.33;0.93;;;3.40;99.90;;;;;;4948156;28;20293;-68
2024/01/14 00:14:16;;;;;;;8.70;1.60;;;;;;;;;;4929697;28;21155;-68
2024/01/14 00:16:45;;;;;;;4.57;1.00;;;3.50;99.90;;;;;;4960004;28;20233;-68
2024/01/14 00:19:12;;;;;;;5.60;1.20;;;3.30;99.90;;;;;;4945478;28;20211;-68
2024/01/14 00:21:39;;;;;;;2.00;1.07;;;3.60;99.90;;;;;;4961615;28;20696;-68
2024/01/14 00:24:06;;;;;;;6.33;1.33;;;3.60;99.90;;;;;;4949583;28;21057;-68
2024/01/14 00:26:33;;;;;;;1.33;0.50;;;3.60;99.90;;;;;;4959461;28;20196;-68
2024/01/14 00:29:00;;;;;;;2.33;0.37;;;4.50;99.90;;;;;;4917028;28;22457;-68
2024/01/14 00:31:27;;;;;;;2.50;0.73;;;4.00;99.90;;;;;;4967712;28;20207;-68
2024/01/14 00:33:55;;;;;;;2.17;0.60;;;2.80;99.90;;;;;;4943672;28;20212;-68
2024/01/14 00:36:22;;;;;;;3.83;1.07;;;;;;;;;;4964714;28;20254;-68
2024/01/14 00:38:49;;;;;;;4.50;1.00;;;2.90;99.90;;;;;;4946466;28;20631;-68
2024/01/14 00:41:16;;;;;;;6.77;0.50;;;3.70;99.90;;;;;;4965417;28;20714;-68
2024/01/14 00:43:43;;;;;;;7.37;1.17;;;;;;;;;;4944898;28;20203;-68
2024/01/14 00:46:10;;;;;;;4.10;0.97;;;3.60;99.90;;;;;;4949787;28;20200;-68
2024/01/14 00:48:37;;;;;;;3.53;0.70;;;3.70;99.90;;;;;;4953260;28;20660;-68
2024/01/14 00:51:06;;;;;;;4.83;0.80;;;3.60;99.90;;;;;;4949995;28;20226;-68
2024/01/14 00:53:33;;;;;;;3.53;0.67;;;3.70;99.90;;;;;;4953227;28;20738;-68
2024/01/14 00:56:00;;;;;;;6.10;1.00;;;3.70;99.90;;;;;;4961627;28;21320;-68
2024/01/14 00:58:27;;;;;;;8.50;1.10;;;3.60;99.90;;;;;;4954901;28;20242;-68
2024/01/14 01:00:54;;;;;;;2.87;0.73;;;3.80;99.90;;;;;;4928303;28;22036;-68
2024/01/14 01:03:21;;;;;;;4.40;0.90;;;3.60;99.90;;;;;;4955702;28;20208;-68
2024/01/14 01:05:48;;;;;;;3.80;0.80;;;3.50;99.90;;;;;;4947884;28;21870;-68
2024/01/14 01:08:16;;;;;;;5.90;0.83;;;3.70;99.90;;;;;;4944992;28;20685;-68
2024/01/14 01:10:43;;;;;;;3.77;0.93;;;3.80;99.90;;;;;;4952244;28;20207;-68
2024/01/14 01:13:10;;;;;;;5.00;0.87;;;3.60;99.90;;;;;;4951617;28;20209;-68
2024/01/14 01:15:37;;;;;;;2.00;0.53;;;;;;;;;;4953219;28;20208;-68
2024/01/14 01:18:04;;;;;;;9.67;1.40;;;3.70;99.90;;;;;;4940610;28;20311;-68
2024/01/14 01:20:31;;;;;;;9.20;1.13;;;3.60;99.90;;;;;;4952659;28;20234;-68
2024/01/14 01:22:58;;;;;;;4.87;0.90;;;3.70;99.90;;;;;;4948717;28;20208;-68
2024/01/14 01:25:27;;;;;;;7.80;1.00;;;3.70;99.90;;;;;;4951196;28;20218;-68
2024/01/14 01:27:53;;;;;;;7.77;0.97;;;3.70;99.90;;;;;;4951531;28;20210;-68
2024/01/14 01:30:20;;;;;;;5.67;1.10;;;3.60;99.90;;;;;;4963297;28;20223;-68
2024/01/14 01:32:48;;;;;;;2.70;1.00;;;3.50;99.90;;;;;;4929304;28;20213;-68
2024/01/14 01:35:15;;;;;;;7.17;0.80;;;3.70;99.90;;;;;;4952323;28;20794;-68
2024/01/14 01:37:42;;;;;;;5.60;0.70;;;3.70;99.90;;;;;;4954720;28;20234;-68
2024/01/14 01:40:10;;;;;;;1.63;0.83;;;3.70;99.90;;;;;;4946710;28;20227;-68
2024/01/14 01:42:38;;;;;;;4.27;0.90;;;3.60;99.90;;;;;;4963485;28;20211;-68
2024/01/14 01:45:06;;;;;;;8.47;0.73;;;3.60;99.90;;;;;;4950744;28;20226;-68
2024/01/14 01:47:33;;;;;;;6.43;1.00;;;3.80;99.90;;;;;;4929485;28;20218;-68
2024/01/14 01:50:00;;;;;;;1.33;0.80;;;3.70;99.90;;;;;;4951870;28;20500;-68
2024/01/14 01:52:28;;;;;;;4.23;0.73;;;3.60;99.90;;;;;;4962942;28;20569;-68
2024/01/14 01:54:57;;;;;;;2.63;0.67;;;3.70;99.90;;;;;;4938190;28;20224;-68
2024/01/14 01:57:24;;;;;;;7.10;1.13;;;3.80;99.90;;;;;;4964878;28;20236;-68
2024/01/14 01:59:52;;;;;;;9.63;1.37;;;3.80;99.90;;;;;;4950766;28;20378;-68
2024/01/14 02:02:22;;;;;;;10.73;1.33;;;3.70;99.90;;;;;;4956429;28;20302;-68
2024/01/14 02:04:49;;;;;;;2.73;0.90;;;3.70;99.90;;;;;;4926032;28;20212;-68
2024/01/14 02:07:17;;;;;;;6.27;1.20;;;3.80;99.90;;;;;;4962316;28;20206;-68
2024/01/14 02:09:44;;;;;;;3.40;1.03;;;3.80;99.90;;;;;;4946705;28;20318;-69
2024/01/14 02:12:11;;;;;;;6.23;1.03;;;3.70;99.90;;;;;;4956081;28;20225;-68
2024/01/14 02:14:38;;;;;;;9.57;1.20;;;;;;;;;;4959212;28;20204;-68
2024/01/14 02:17:06;;;;;;;9.10;1.30;;;3.60;99.90;;;;;;4952229;28;20206;-68
2024/01/14 02:19:33;;;;;;;7.40;1.70;;;3.70;99.90;;;;;;4926637;28;20229;-68
2024/01/14 02:22:07;;;;;;;10.17;1.70;;;3.70;99.90;;;;;;4944580;28;20228;-68
2024/01/14 02:24:37;;;;;;;7.83;1.10;;;3.60;99.90;;;;;;4959987;28;20203;-68
2024/01/14 02:27:04;;;;;;;5.80;1.30;;;3.60;99.90;;;;;;4938703;28;20313;-68
2024/01/14 02:29:31;;;;;;;4.77;1.43;;;3.80;99.90;;;;;;4964339;28;20944;-68
2024/01/14 02:31:58;;;;;;;7.10;1.23;;;3.80;99.90;;;;;;4939947;28;20700;-68
2024/01/14 02:34:25;;;;;;;3.07;1.03;;;3.70;99.90;;;;;;4928384;28;20289;-68
2024/01/14 02:36:52;;;;;;;4.10;1.43;;;3.90;99.90;;;;;;4946793;28;20207;-68
2024/01/14 02:39:19;;;;;;;5.20;1.17;;;3.80;99.90;;;;;;4960746;28;20221;-68
2024/01/14 02:41:47;;;;;;;12.90;1.50;;;3.70;99.90;;;;;;4950218;28;21129;-68
2024/01/14 02:44:14;;;;;;;4.17;1.27;;;3.80;99.90;;;;;;4962610;28;20206;-67
2024/01/14 02:46:42;;;;;;;8.00;1.33;;;3.70;99.90;;;;;;4950614;28;20205;-68
2024/01/14 02:49:09;;;;;;;9.13;1.30;;;3.60;99.90;;;;;;4934886;28;20220;-68
2024/01/14 02:51:36;;;;;;;6.63;1.87;;;3.70;99.90;;;;;;4939432;28;20203;-68
2024/01/14 02:54:03;;;;;;;14.03;2.03;;;3.70;99.90;;;;;;4954864;28;20482;-67
2024/01/14 02:56:30;;;;;;;7.23;1.67;;;3.70;99.90;;;;;;4946134;28;20238;-68
2024/01/14 02:58:58;;;;;;;6.80;1.93;;;3.60;99.90;;;;;;4946000;28;20625;-67
2024/01/14 03:01:25;;;;;;;10.60;1.53;;;3.50;99.90;;;;;;4962032;28;20312;-68
2024/01/14 03:03:52;;;;;;;10.93;2.03;;;3.50;99.90;;;;;;4942538;28;20199;-68
2024/01/14 03:06:19;;;;;;;7.57;1.90;;;3.50;99.90;;;;;;4933176;28;20574;-67
2024/01/14 03:08:46;;;;;;;7.10;1.73;;;3.40;99.90;;;;;;4946687;28;20676;-68
2024/01/14 03:11:13;;;;;;;6.37;1.07;;;3.50;99.90;;;;;;4952907;28;20207;-68
2024/01/14 03:13:40;;;;;;;7.10;1.43;;;3.50;99.90;;;;;;4948039;28;20672;-68
2024/01/14 03:16:08;;;;;;;6.83;1.67;;;3.60;99.90;;;;;;4959899;28;20693;-68
2024/01/14 03:18:35;;;;;;;7.07;1.57;;;3.40;99.90;;;;;;4950282;28;20203;-68
2024/01/14 03:21:02;;;;;;;7.50;1.50;;;3.40;99.90;;;;;;4932883;28;20789;-68
2024/01/14 03:23:28;;;;;;;3.10;0.80;;;3.30;99.90;;;;;;4957091;28;20323;-67
2024/01/14 03:25:55;;;;;;;8.43;1.73;;;3.50;99.90;;;;;;4942660;28;20669;-68
2024/01/14 03:28:22;;;;;;;6.57;1.63;;;3.40;99.90;;;;;;4949949;28;20214;-67
2024/01/14 03:30:49;;;;;;;5.40;1.70;;;3.50;99.90;;;;;;4955203;28;20213;-68
2024/01/14 03:33:17;;;;;;;7.27;1.97;;;3.40;99.90;;;;;;4951373;28;20294;-68
2024/01/14 03:35:44;;;;;;;6.70;1.33;;;3.40;99.90;;;;;;4926643;28;21509;-67
2024/01/14 03:38:11;;;;;;;5.57;1.90;;;3.30;99.90;;;;;;4955206;28;21071;-68
2024/01/14 03:40:37;;;;;;;9.33;1.37;;;3.80;99.90;;;;;;4944438;28;20223;-68
2024/01/14 03:43:04;;;;;;;6.43;2.00;;;3.20;99.90;;;;;;4939333;28;20203;-68
2024/01/14 03:45:31;;;;;;;13.13;2.13;;;3.20;99.90;;;;;;4948125;28;20214;-68
2024/01/14 03:47:57;;;;;;;6.77;1.43;;;3.20;99.90;;;;;;4957988;28;20211;-68
2024/01/14 03:50:26;;;;;;;4.33;1.80;;;3.10;99.90;;;;;;4939656;28;20204;-68
2024/01/14 03:52:53;;;;;;;6.80;1.53;;;3.10;99.90;;;;;;4933669;28;20297;-68
2024/01/14 03:55:19;;;;;;;7.37;1.87;;;1.60;99.90;;;;;;4950817;28;20208;-68
2024/01/14 03:57:46;;;;;;;8.37;1.40;;;3.20;99.90;;;;;;4941176;28;20705;-67
2024/01/14 04:00:14;;;;;;;4.13;1.20;;;3.30;99.90;;;;;;4948939;28;20210;-67
2024/01/14 04:02:41;;;;;;;13.20;2.10;;;;;;;;;;4954871;28;20225;-67
2024/01/14 04:05:09;;;;;;;9.93;1.67;;;3.40;99.90;;;;;;4953424;28;20210;-67
2024/01/14 04:07:37;;;;;;;4.30;1.43;;;3.30;99.90;;;;;;4934776;28;20215;-67
2024/01/14 04:10:04;;;;;;;6.90;2.10;;;3.30;99.90;;;;;;4950393;28;20716;-67
2024/01/14 04:12:31;;;;;;;4.80;1.17;;;3.20;99.90;;;;;;4945015;28;20589;-67
2024/01/14 04:14:58;;;;;;;10.30;1.33;;;3.00;99.90;;;;;;4935367;28;20206;-68
2024/01/14 04:17:25;;;;;;;12.83;1.70;;;3.10;99.90;;;;;;4966679;28;20202;-67
2024/01/14 04:19:52;;;;;;;7.93;1.43;;;3.10;99.90;;;;;;4944315;28;20208;-67
2024/01/14 04:22:19;;;;;;;12.07;1.20;;;3.00;99.90;;;;;;4932722;28;20258;-68
2024/01/14 04:24:47;;;;;;;15.40;2.33;;;2.90;99.90;;;;;;4951359;28;20214;-68
2024/01/14 04:27:14;;;;;;;8.93;1.50;;;3.00;99.90;;;;;;4948564;28;20747;-68
2024/01/14 04:29:41;;;;;;;12.07;1.90;;;3.00;99.90;;;;;;4953547;28;20573;-68
2024/01/14 04:32:08;;;;;;;17.20;2.10;;;3.00;99.90;;;;;;4963729;28;20200;-68
2024/01/14 04:34:35;;;;;;;6.53;1.60;;;2.70;99.90;;;;;;4963633;28;20559;-67
2024/01/14 04:37:02;;;;;;;6.17;1.30;;;3.00;99.90;;;;;;4951976;28;21133;-68
2024/01/14 04:39:29;;;;;;;5.93;1.47;;;3.00;99.90;;;;;;4919536;28;20216;-67
2024/01/14 04:41:57;;;;;;;9.43;1.67;;;3.00;99.90;;;;;;4948237;28;20228;-67
2024/01/14 04:44:24;;;;;;;4.10;1.17;;;2.90;99.90;;;;;;4945151;28;20695;-68
2024/01/14 04:46:51;;;;;;;6.40;1.53;;;2.10;99.90;;;;;;4956113;28;20208;-68
2024/01/14 04:49:18;;;;;;;4.83;1.43;;;2.90;99.90;;;;;;4965544;28;20294;-67
2024/01/14 04:51:45;;;;;;;5.10;1.00;;;2.80;99.90;;;;;;4953739;28;20207;-68
2024/01/14 04:54:12;;;;;;;7.13;1.37;;;4.00;99.90;;;;;;4935872;28;20282;-68
2024/01/14 04:56:39;;;;;;;7.17;1.00;;;2.80;99.90;;;;;;4943842;28;20207;-67
2024/01/14 04:59:08;;;;;;;1.83;0.80;;;2.70;99.90;;;;;;4948508;28;20609;-67
2024/01/14 05:01:35;;;;;;;4.60;0.83;;;2.70;99.90;;;;;;4952545;28;20242;-67
2024/01/14 05:04:02;;;;;;;6.40;1.40;;;2.80;99.90;;;;;;4961446;28;20223;-67
2024/01/14 05:06:29;;;;;;;11.00;1.70;;;2.80;99.90;;;;;;4954496;28;20207;-67
2024/01/14 05:08:56;;;;;;;6.33;1.20;;;3.50;99.90;;;;;;4933021;28;20295;-68
2024/01/14 05:11:23;;;;;;;4.87;1.33;;;2.10;99.90;;;;;;4954599;28;20694;-68
2024/01/14 05:13:51;;;;;;;2.13;0.87;;;;;;;;;;4963477;28;20211;-68
2024/01/14 05:16:19;;;;;;;4.80;1.27;;;2.70;99.90;;;;;;4951810;28;20215;-67
2024/01/14 05:18:47;;;;;;;6.73;1.33;;;;;;;;;;4965122;28;20900;-67
2024/01/14 05:21:16;;;;;;;10.40;1.30;;;2.50;99.90;;;;;;4965056;28;20228;-67
2024/01/14 05:23:43;;;;;;;7.10;0.93;;;2.80;99.90;;;;;;4945923;28;20995;-68
2024/01/14 05:26:11;;;;;;;7.27;1.40;;;2.60;99.90;;;;;;4936803;28;20955;-68
2024/01/14 05:28:39;;;;;;;3.83;1.20;;;;;;;;;;4962523;28;20200;-68
2024/01/14 05:31:05;;;;;;;6.83;1.17;;;2.80;99.90;;;;;;4953068;28;21146;-67
2024/01/14 05:33:34;;;;;;;4.20;0.80;;;2.70;99.90;;;;;;4967841;28;20207;-67
2024/01/14 05:36:01;;;;;;;8.23;1.30;;;2.60;99.90;;;;;;4960399;28;20588;-68
2024/01/14 05:38:28;;;;;;;2.90;0.90;;;0.30;99.90;;;;;;4946494;28;20306;-67
2024/01/14 05:40:56;;;;;;;6.20;1.60;;;2.70;99.90;;;;;;4930218;28;20211;-67
2024/01/14 05:43:23;;;;;;;8.53;1.40;;;2.70;99.90;;;;;;4949401;28;20363;-67
2024/01/14 05:45:49;;;;;;;12.93;1.20;;;2.70;99.90;;;;;;4960142;28;20215;-67
2024/01/14 05:48:16;;;;;;;6.63;1.27;;;2.70;99.90;;;;;;4947261;28;20206;-67
2024/01/14 05:50:45;;;;;;;5.00;1.27;;;2.70;99.90;;;;;;4963305;28;20196;-68
2024/01/14 05:53:12;;;;;;;8.27;1.30;;;2.50;99.90;;;;;;4953357;28;20205;-67
2024/01/14 05:55:38;;;;;;;4.67;1.10;;;2.80;99.90;;;;;;4930001;28;20334;-67
2024/01/14 05:58:06;;;;;;;5.97;1.10;;;;;;;;;;4951555;28;21764;-67
2024/01/14 06:00:34;;;;;;;7.23;1.33;;;2.60;99.90;;;;;;4959483;28;20808;-67
2024/01/14 06:03:01;;;;;;;7.70;1.27;;;2.80;99.90;;;;;;4943102;28;20892;-68
2024/01/14 06:05:27;;;;;;;7.43;1.43;;;2.60;99.90;;;;;;4964776;28;20290;-67
2024/01/14 06:07:56;;;;;;;4.57;1.37;;;2.60;99.90;;;;;;4958469;28;20204;-67
2024/01/14 06:10:23;;;;;;;9.43;1.50;;;2.80;99.90;;;;;;4922601;28;20221;-68
2024/01/14 06:12:49;;;;;;;7.57;1.40;;;2.60;99.90;;;;;;4950174;28;20354;-67
2024/01/14 06:15:16;;;;;;;6.60;1.30;;;2.50;99.90;;;;;;4957602;28;20191;-67
2024/01/14 06:17:44;;;;;;;5.37;0.97;;;2.60;99.90;;;;;;4952868;28;20214;-67
2024/01/14 06:20:11;;;;;;;8.60;1.60;;;2.50;99.90;;;;;;4947582;28;20207;-67
2024/01/14 06:22:38;;;;;;;5.67;1.07;;;2.50;99.90;;;;;;4957615;28;20223;-67
2024/01/14 06:25:08;;;;;;;6.30;1.60;;;2.60;99.90;;;;;;4951346;28;20207;-67
2024/01/14 06:27:35;;;;;;;5.77;1.37;;;2.50;99.90;;;;;;4940610;28;20683;-67
2024/01/14 06:30:03;;;;;;;6.40;1.70;;;2.50;99.90;;;;;;4948653;28;20776;-67
2024/01/14 06:32:30;;;;;;;4.03;1.17;;;2.50;99.90;;;;;;4947894;28;20320;-67
2024/01/14 06:34:57;;;;;;;4.90;1.37;;;2.50;99.90;;;;;;4959272;28;20290;-67
2024/01/14 06:37:23;;;;;;;8.07;1.57;;;2.50;99.90;;;;;;4960814;28;20208;-67
2024/01/14 06:39:50;;;;;;;8.20;1.57;;;3.20;99.90;;;;;;4959918;28;20207;-67
2024/01/14 06:42:19;;;;;;;9.20;1.93;;;2.00;99.90;;;;;;4927729;28;20231;-67
2024/01/14 06:44:45;;;;;;;4.33;1.63;;;2.60;99.90;;;;;;4953152;28;20215;-67
2024/01/14 06:47:20;;;;;;;4.23;1.23;;;2.60;99.90;;;;;;5056291;27;20621;-67
2024/01/14 06:49:47;;;;;;;12.87;1.87;;;2.60;99.90;;;;;;5044735;28;20200;-67
2024/01/14 06:52:14;;;;;;;11.20;1.30;;;;;;;;;;5057604;28;20197;-67
2024/01/14 06:54:42;;;;;;;8.60;1.47;;;2.60;99.90;;;;;;5059349;28;20200;-67
2024/01/14 06:57:09;;;;;;;4.13;1.80;;;2.60;99.90;;;;;;5025974;28;20215;-68
2024/01/14 06:59:37;;;;;;;6.80;1.23;;;2.50;99.90;;;;;;5045857;28;20846;-68
2024/01/14 07:02:04;;;;;;;13.97;1.53;;;2.50;99.90;;;;;;5048264;28;20201;-67
2024/01/14 07:04:33;;;;;;;7.60;2.30;;;2.60;99.90;;;;;;5049980;28;20483;-67
2024/01/14 07:07:00;;;;;;;4.10;1.17;;;2.50;99.90;;;;;;5055780;28;20231;-67
2024/01/14 07:09:26;;;;;;;7.10;1.23;;;2.30;99.90;;;;;;5053791;28;20193;-67
2024/01/14 07:11:53;;;;;;;3.80;1.07;;;2.30;99.90;;;;;;5029680;28;20227;-67
2024/01/14 07:14:22;;;;;;;8.43;1.53;;;2.30;99.90;;;;;;5037201;28;20214;-68
2024/01/14 07:16:49;;;;;;;5.93;1.07;;;2.40;99.90;;;;;;5044940;28;20204;-67
2024/01/14 07:19:16;;;;;;;8.37;1.57;;;2.40;99.90;;;;;;5030952;28;20197;-67
2024/01/14 07:21:44;;;;;;;10.47;1.33;;;2.30;99.90;;;;;;5050888;28;20271;-67
2024/01/14 07:24:11;;;;;;;12.17;1.87;;;2.50;99.90;;;;;;5053948;28;20198;-67
2024/01/14 07:26:38;;;;;;;13.77;2.73;;;2.50;99.90;;;;;;5054169;28;20234;-67
2024/01/14 07:29:05;;;;;;;9.63;2.03;;;2.50;99.90;;;;;;5023171;28;20295;-67
2024/01/14 07:31:32;;;;;;;5.73;1.33;;;3.00;99.90;;;;;;5042186;28;21133;-67
2024/01/14 07:33:59;;;;;;;5.27;0.83;;;2.40;99.90;;;;;;5043152;28;20218;-67
2024/01/14 07:36:26;;;;;;;9.13;1.77;;;2.40;99.90;;;;;;5043215;28;20749;-67
2024/01/14 07:38:55;;;;;;;14.23;1.53;;;2.40;99.90;;;;;;5043900;28;20205;-67
2024/01/14 07:41:22;;;;;;;4.77;1.40;;;2.50;99.90;;;;;;5053051;28;20196;-68
2024/01/14 07:43:49;;;;;;;5.80;1.40;;;2.50;99.90;;;;;;5033451;28;20676;-67
2024/01/14 07:46:16;;;;;;;9.10;2.20;;;2.50;99.90;;;;;;5044920;28;20700;-67
2024/01/14 07:48:43;;;;;;;7.57;1.90;;;2.40;99.90;;;;;;5050260;28;20249;-67
2024/01/14 07:51:10;;;;;;;12.33;2.53;;;;;;;;;;5043153;28;20204;-67
2024/01/14 07:53:37;;;;;;;7.33;1.37;;;3.30;99.90;;;;;;5049929;28;20201;-67
2024/01/14 07:56:06;;;;;;;5.07;1.17;;;2.70;99.90;;;;;;5049136;28;20231;-67
2024/01/14 07:58:33;;;;;;;8.30;1.43;;;2.30;99.90;;;;;;5013689;28;20221;-68
2024/01/14 08:01:00;;;;;;;11.53;1.53;;;2.40;99.90;;;;;;5035235;28;20235;-67
2024/01/14 08:03:27;;;;;;;9.77;1.57;;;2.30;99.90;;;;;;5008014;28;20723;-67
2024/01/14 08:05:54;;;;;;;9.53;1.37;;;2.40;99.90;;;;;;5035027;28;20229;-68
2024/01/14 08:08:21;;;;;;;7.60;1.77;;;2.50;99.90;;;;;;5000767;28;20229;-67
2024/01/14 08:10:48;;;;;;;6.63;1.27;;;2.50;99.90;;;;;;5034722;28;20214;-67
2024/01/14 08:13:17;;;;;;;8.53;1.90;;;2.40;99.90;;;;;;5006272;28;20646;-68
2024/01/14 08:15:44;;;;;;;4.43;1.30;;;2.60;99.90;;;;;;5042678;28;20196;-67
2024/01/14 08:18:11;;;;;;;9.57;1.77;;;2.60;99.90;;;;;;5027619;28;20209;-67
2024/01/14 08:20:38;;;;;;;5.43;1.70;;;2.60;99.90;;;;;;5044167;28;20392;-67
2024/01/14 08:23:05;;;;;;;13.20;1.90;;;2.60;99.90;;;;;;5020245;28;21063;-67
2024/01/14 08:25:32;;;;;;;13.23;1.73;;;2.60;99.90;;;;;;5040949;28;20680;-67
2024/01/14 08:27:59;;;;;;;4.70;1.50;;;;;;;;;;5038470;28;20236;-67
2024/01/14 08:30:27;;;;;;;6.27;1.70;;;2.60;99.90;;;;;;5014644;28;20249;-67
2024/01/14 08:32:54;;;;;;;9.90;1.17;;;2.80;99.90;;;;;;5033903;28;20205;-68
2024/01/14 08:35:23;;;;;;;4.37;1.47;;;2.80;99.90;;;;;;5026316;28;20201;-68
2024/01/14 08:37:50;;;;;;;6.30;1.17;;;2.80;99.90;;;;;;5027239;28;20284;-67
2024/01/14 08:40:17;;;;;;;3.13;1.20;;;;;;;;;;5029793;28;20331;-67
2024/01/14 08:42:45;;;;;;;8.70;1.70;;;2.90;99.90;;;;;;5045514;28;20200;-67
2024/01/14 08:45:12;;;;;;;11.67;1.90;;;2.80;99.90;;;;;;5003195;28;20244;-67
2024/01/14 08:47:41;;;;;;;4.37;1.63;;;2.90;99.90;;;;;;5030396;28;20224;-67
2024/01/14 08:50:10;;;;;;;13.53;2.47;;;2.90;99.90;;;;;;5031350;28;20214;-67
2024/01/14 08:52:37;;;;;;;9.77;1.47;;;2.80;99.90;;;;;;5016238;28;20686;-67
2024/01/14 08:55:04;;;;;;;5.23;1.90;;;2.80;99.90;;;;;;5025530;28;20207;-68
2024/01/14 08:57:31;;;;;;;9.20;1.87;;;2.90;99.90;;;;;;5025031;28;20691;-68
2024/01/14 08:59:58;;;;;;;3.40;1.30;;;;;;;;;;5033313;28;20545;-68
2024/01/14 09:02:26;;;;;;;6.30;1.47;;;2.80;99.90;;;;;;4985950;28;20231;-68
2024/01/14 09:04:54;;;;;;;7.17;1.93;;;3.00;99.90;;;;;;5018326;28;20202;-68
2024/01/14 09:07:21;;;;;;;11.27;2.00;;;2.90;99.90;;;;;;5015548;28;20221;-67
2024/01/14 09:09:48;;;;;;;9.83;1.60;;;2.90;99.90;;;;;;4999964;28;20224;-67
2024/01/14 09:12:16;;;;;;;3.27;1.63;;;3.00;99.90;;;;;;5028597;28;20737;-67
2024/01/14 09:14:42;;;;;;;14.13;1.73;;;2.90;99.90;;;;;;5029009;28;20225;-68
2024/01/14 09:17:10;;;;;;;9.47;1.40;;;2.90;99.90;;;;;;4984281;28;20286;-67
2024/01/14 09:19:36;;;;;;;14.03;2.07;;;2.90;99.90;;;;;;5019466;28;20376;-67
2024/01/14 09:22:05;;;;;;;6.13;1.50;;;2.60;99.90;;;;;;5018499;28;20229;-67
2024/01/14 09:24:32;;;;;;;10.13;1.57;;;2.90;99.90;;;;;;5005728;28;20552;-68
2024/01/14 09:26:58;;;;;;;8.20;1.80;;;2.90;99.90;;;;;;5025359;28;20646;-67
2024/01/14 09:29:25;;;;;;;6.90;2.17;;;3.00;99.90;;;;;;5022054;28;21425;-67
2024/01/14 09:31:52;;;;;;;8.33;1.40;;;3.20;99.90;;;;;;4996375;28;20213;-67
2024/01/14 09:34:19;;;;;;;8.13;1.87;;;2.90;99.90;;;;;;5005516;28;20236;-67
2024/01/14 09:36:46;;;;;;;10.07;1.70;;;2.80;99.90;;;;;;4982724;28;21019;-67
2024/01/14 09:39:15;;;;;;;6.70;1.77;;;3.00;99.90;;;;;;4977847;28;20221;-68
2024/01/14 09:41:45;;;;;;;4.93;1.60;;;3.00;99.90;;;;;;5007326;28;20606;-68
2024/01/14 09:44:15;;;;;;;4.43;1.80;;;3.00;99.90;;;;;;5025395;28;20198;-67
2024/01/14 09:46:43;;;;;;;8.20;1.73;;;3.00;99.90;;;;;;4999495;28;20237;-67
2024/01/14 09:49:11;;;;;;;5.80;1.30;;;3.00;99.90;;;;;;5009643;28;20238;-67
2024/01/14 09:51:38;;;;;;;6.47;1.60;;;3.00;99.90;;;;;;5022190;28;20223;-68
2024/01/14 09:54:06;;;;;;;7.10;1.63;;;3.60;99.90;;;;;;4976351;28;20725;-67
2024/01/14 09:56:35;;;;;;;3.73;1.57;;;3.10;99.90;;;;;;5020526;28;20386;-67
2024/01/14 09:59:03;;;;;;;8.07;1.73;;;3.10;99.90;;;;;;5011095;28;20325;-68
2024/01/14 10:01:32;;;;;;;6.60;2.23;;;1.80;99.90;;;;;;5035341;28;20788;-67
2024/01/14 10:04:01;;;;;;;5.27;1.87;;;3.60;99.90;;;;;;4982877;28;20270;-68
2024/01/14 10:06:28;;;;;;;7.57;1.90;;;3.30;99.90;;;;;;5032354;28;20228;-67
2024/01/14 10:08:55;;;;;;;4.37;1.27;;;3.20;99.90;;;;;;5013585;28;20251;-67
2024/01/14 10:11:22;;;;;;;5.37;1.37;;;3.40;99.90;;;;;;4999359;28;21071;-67
2024/01/14 10:13:51;;;;;;;5.17;1.53;;;3.30;99.90;;;;;;5024311;28;20231;-67
2024/01/14 10:16:18;;;;;;;8.60;2.33;;;3.50;99.90;;;;;;5031529;28;20219;-67
2024/01/14 10:18:45;;;;;;;10.53;1.50;;;3.40;99.90;;;;;;5005417;28;20232;-68
2024/01/14 10:21:12;;;;;;;8.90;2.00;;;3.50;99.90;;;;;;5023985;28;20223;-67
2024/01/14 10:23:40;;;;;;;3.67;1.43;;;3.50;99.90;;;;;;5012962;28;20207;-67
2024/01/14 10:26:06;;;;;;;5.77;2.20;;;3.50;99.90;;;;;;5002595;28;20220;-68
2024/01/14 10:28:34;;;;;;;9.43;1.93;;;3.50;99.90;;;;;;5027990;28;20227;-67
2024/01/14 10:31:04;;;;;;;5.03;1.97;;;3.60;99.90;;;;;;5017703;28;20212;-68
2024/01/14 10:33:33;;;;;;;3.33;1.93;;;3.60;99.90;;;;;;5003141;28;20209;-67
2024/01/14 10:36:00;;;;;;;5.50;1.20;;;3.60;99.90;;;;;;5007070;28;20236;-68
2024/01/14 10:38:27;;;;;;;4.07;1.47;;;3.40;99.90;;;;;;5027801;28;20225;-67
2024/01/14 10:40:54;;;;;;;6.17;1.40;;;3.50;99.90;;;;;;5005003;28;20224;-67
2024/01/14 10:43:24;;;;;;;8.83;1.60;;;3.80;99.90;;;;;;5021668;28;20201;-67
2024/01/14 10:45:51;;;;;;;5.93;1.77;;;3.50;99.90;;;;;;5021121;28;20241;-67
2024/01/14 10:48:25;;;;;;;10.43;1.63;;;3.50;99.90;;;;;;5037543;28;20238;-67
2024/01/14 10:50:56;;;;;;;6.20;1.60;;;3.60;99.90;;;;;;4990907;28;20995;-68
2024/01/14 10:53:24;;;;;;;11.30;1.50;;;3.60;99.90;;;;;;5036352;28;20667;-67
2024/01/14 10:56:00;;;;;;;7.90;2.10;;;3.70;99.90;;;;;;5009159;28;20315;-68
2024/01/14 10:58:30;;;;;;;10.00;1.17;;;4.00;99.90;;;;;;4999123;28;21386;-68
2024/01/14 11:01:01;;;;;;;3.53;1.40;;;4.00;99.90;;;;;;5027543;28;20229;-67
2024/01/14 11:03:30;;;;;;;5.30;1.27;;;4.00;99.90;;;;;;5019227;28;20201;-67
2024/01/14 11:05:57;;;;;;;7.67;2.07;;;2.90;99.90;;;;;;4994415;28;20243;-67
2024/01/14 11:08:24;;;;;;;2.30;1.03;;;4.00;99.90;;;;;;5014257;28;20256;-68
2024/01/14 11:10:53;;;;;;;7.10;1.23;;;4.00;99.90;;;;;;5020616;28;20235;-67
2024/01/14 11:13:25;;;;;;;3.80;1.00;;;4.10;99.90;;;;;;4992543;28;20272;-67
2024/01/14 11:15:59;;;;;;;4.57;1.23;;;4.00;99.90;;;;;;5027200;28;20312;-67
2024/01/14 11:18:32;;;;;;;7.57;1.30;;;4.10;99.90;;;;;;5019852;28;20305;-67
2024/01/14 11:21:09;;;;;;;2.47;0.90;;;4.20;99.90;;;;;;4990527;28;21203;-68
2024/01/14 11:23:36;;;;;;;3.43;1.00;;;4.30;99.90;;;;;;5020738;28;20204;-67
2024/01/14 11:26:03;;;;;;;1.93;0.87;;;4.20;99.90;;;;;;5014941;28;20234;-67
2024/01/14 11:28:30;;;;;;;1.10;0.90;;;4.30;99.90;;;;;;4997743;28;20729;-68
2024/01/14 11:30:59;;;;;;;11.27;1.50;;;4.30;99.90;;;;;;4997362;28;20282;-68
2024/01/14 11:33:40;;;;;;;8.20;1.90;;;4.20;99.90;;;;;;5012861;28;20211;-67
2024/01/14 11:36:08;;;;;;;6.70;1.20;;;5.30;99.90;;;;;;4987837;28;20721;-67
2024/01/14 11:38:36;;;;;;;4.23;1.33;;;5.50;99.90;;;;;;5016957;28;20228;-67
2024/01/14 11:41:26;;;;;;;5.47;1.33;;;4.80;99.90;;;;;;5001622;28;20785;-67
2024/01/14 11:43:57;;;;;;;7.50;1.10;;;5.10;99.90;;;;;;4999238;28;20240;-68
2024/01/14 11:46:42;;;;;;;2.70;1.00;;;4.80;99.90;;;;;;5016772;28;20235;-68
2024/01/14 11:49:16;;;;;;;8.47;1.10;;;4.50;99.90;;;;;;5017953;28;20211;-67
2024/01/14 11:51:52;;;;;;;4.80;1.10;;;4.80;99.90;;;;;;4996047;28;20313;-67
2024/01/14 11:54:19;;;;;;;10.27;1.30;;;4.50;99.90;;;;;;5020275;28;20303;-68
2024/01/14 11:56:46;;;;;;;2.80;1.47;;;4.80;99.90;;;;;;5015100;28;20200;-68
2024/01/14 11:59:13;;;;;;;5.20;1.70;;;5.10;99.90;;;;;;4996270;28;22621;-67
2024/01/14 12:01:40;;;;;;;3.70;1.30;;;4.60;99.90;;;;;;5015958;28;20228;-67
2024/01/14 12:04:09;;;;;;;7.10;1.23;;;4.60;99.90;;;;;;5015859;28;20217;-67
2024/01/14 12:06:41;;;;;;;3.93;1.33;;;4.60;99.90;;;;;;5005163;28;20717;-67
2024/01/14 12:09:09;;;;;;;4.43;1.60;;;;;;;;;;5016939;28;20205;-67
2024/01/14 12:11:36;;;;;;;5.47;1.07;;;4.60;99.90;;;;;;5031083;28;20224;-67
2024/01/14 12:14:04;;;;;;;6.73;1.80;;;4.60;99.90;;;;;;5002942;28;20321;-67
2024/01/14 12:16:32;;;;;;;10.40;1.90;;;4.30;99.90;;;;;;5028464;28;20247;-66
2024/01/14 12:18:59;;;;;;;7.27;1.90;;;4.60;99.90;;;;;;5021421;28;20208;-67
2024/01/14 12:21:28;;;;;;;6.23;1.20;;;4.70;99.90;;;;;;4974581;28;20230;-67
2024/01/14 12:23:58;;;;;;;8.97;1.10;;;4.60;99.90;;;;;;5007468;28;20248;-67
2024/01/14 12:26:25;;;;;;;6.27;1.23;;;4.50;99.90;;;;;;5009827;28;20229;-67
2024/01/14 12:28:52;;;;;;;8.60;1.27;;;4.60;99.90;;;;;;5016895;28;20600;-67
2024/01/14 12:31:21;;;;;;;4.83;1.27;;;4.50;99.90;;;;;;5024245;28;20208;-67
2024/01/14 12:33:48;;;;;;;7.30;1.30;;;4.40;99.90;;;;;;5041060;28;20764;-68
2024/01/14 12:36:16;;;;;;;3.17;0.93;;;4.40;99.90;;;;;;4977624;28;20209;-67
2024/01/14 12:38:43;;;;;;;2.10;0.93;;;4.30;99.90;;;;;;5014318;28;20220;-67
2024/01/14 12:41:13;;;;;;;3.13;0.87;;;4.30;99.90;;;;;;5015249;28;20212;-68
2024/01/14 12:43:41;;;;;;;1.77;0.93;;;4.30;99.90;;;;;;5001705;28;20235;-67
2024/01/14 12:46:07;;;;;;;4.03;1.17;;;4.40;99.90;;;;;;4998199;28;20229;-68
2024/01/14 12:48:34;;;;;;;3.63;1.10;;;4.30;99.90;;;;;;5016097;28;20220;-68
2024/01/14 12:51:04;;;;;;;3.17;1.30;;;4.30;99.90;;;;;;4992248;28;20935;-68
2024/01/14 12:53:32;;;;;;;1.43;0.90;;;4.40;99.90;;;;;;5003072;28;20228;-68
2024/01/14 12:56:12;;;;;;;2.73;0.93;;;4.30;99.90;;;;;;5018942;28;20631;-68
2024/01/14 12:58:39;;;;;;;4.40;1.30;;;4.20;99.90;;;;;;5010111;28;20220;-67
2024/01/14 13:01:08;;;;;;;7.27;1.37;;;4.90;99.90;;;;;;4974232;28;20715;-68
2024/01/14 13:03:36;;;;;;;3.17;1.00;;;4.20;99.90;;;;;;5018784;28;20700;-68